createdAt,value
2018-10-11T00:01:10.809Z,9.73
2018-10-11T00:03:40.607Z,9.03
2018-10-11T00:06:10.413Z,9.50
2018-10-11T00:08:40.261Z,9.93
2018-10-11T00:11:10.318Z,10.63
2018-10-11T00:13:40.095Z,10.77
2018-10-11T00:16:09.770Z,9.90
2018-10-11T00:18:39.723Z,12.07
2018-10-11T00:21:09.457Z,9.40
2018-10-11T00:24:07.978Z,10.93
2018-10-11T00:26:38.202Z,10.00
2018-10-11T00:29:08.018Z,12.07
2018-10-11T00:31:37.610Z,10.60
2018-10-11T00:34:07.965Z,11.07
2018-10-11T00:36:37.836Z,9.90
2018-10-11T00:39:09.239Z,10.37
2018-10-11T00:41:39.959Z,10.70
2018-10-11T00:44:09.769Z,11.00
2018-10-11T00:46:39.443Z,12.80
2018-10-11T00:49:09.067Z,10.13
2018-10-11T00:51:38.815Z,10.47
2018-10-11T00:54:08.979Z,10.10
2018-10-11T00:56:39.291Z,10.87
2018-10-11T00:59:13.553Z,10.57
2018-10-11T01:01:43.211Z,10.50
2018-10-11T01:04:13.246Z,10.60
2018-10-11T01:06:42.969Z,10.47
2018-10-11T01:09:13.251Z,10.37
2018-10-11T01:11:42.886Z,11.07
2018-10-11T01:14:12.833Z,9.70
2018-10-11T01:16:42.436Z,10.60
2018-10-11T01:19:12.103Z,10.53
2018-10-11T01:21:41.718Z,10.37
2018-10-11T01:24:11.327Z,10.17
2018-10-11T01:26:40.948Z,11.87
2018-10-11T01:29:37.489Z,11.93
2018-10-11T01:32:07.632Z,11.13
2018-10-11T01:34:37.266Z,12.63
2018-10-11T01:37:07.327Z,11.70
2018-10-11T01:39:36.948Z,11.87
2018-10-11T01:42:06.858Z,10.93
2018-10-11T01:44:36.458Z,11.63
2018-10-11T01:47:06.311Z,11.13
2018-10-11T01:49:43.346Z,10.60
2018-10-11T01:52:12.891Z,10.70
2018-10-11T01:54:42.583Z,12.13
2018-10-11T01:57:12.631Z,11.97
2018-10-11T01:59:42.408Z,12.60
2018-10-11T02:02:12.763Z,11.77
2018-10-11T02:04:42.350Z,11.77
2018-10-11T02:07:11.966Z,13.00
2018-10-11T02:09:41.563Z,12.37
2018-10-11T02:12:11.180Z,11.97
2018-10-11T02:15:06.690Z,11.60
2018-10-11T02:17:36.386Z,12.27
2018-10-11T02:20:06.007Z,11.10
2018-10-11T02:22:35.652Z,11.43
2018-10-11T02:25:05.391Z,11.40
2018-10-11T02:27:35.099Z,10.47
2018-10-11T02:30:04.836Z,10.93
2018-10-11T02:32:47.987Z,10.20
2018-10-11T02:35:17.661Z,10.93
2018-10-11T02:37:47.451Z,11.20
2018-10-11T02:40:17.051Z,11.30
2018-10-11T02:42:46.690Z,11.87
2018-10-11T02:45:16.330Z,11.30
2018-10-11T02:47:45.914Z,11.80
2018-10-11T02:50:15.590Z,10.87
2018-10-11T02:53:09.397Z,10.27
2018-10-11T02:55:39.300Z,11.27
2018-10-11T02:58:25.907Z,12.97
2018-10-11T03:00:55.584Z,11.73
2018-10-11T03:03:30.591Z,11.70
2018-10-11T03:06:02.628Z,11.23
2018-10-11T03:08:32.660Z,11.60
2018-10-11T03:11:02.618Z,11.00
2018-10-11T03:13:32.343Z,11.37
2018-10-11T03:16:02.215Z,10.93
2018-10-11T03:18:31.891Z,11.23
2018-10-11T03:21:01.642Z,10.67
2018-10-11T03:23:31.291Z,10.90
2018-10-11T03:26:00.951Z,11.47
2018-10-11T03:28:30.510Z,11.23
2018-10-11T03:31:00.224Z,11.07
2018-10-11T03:33:29.763Z,11.20
2018-10-11T03:35:59.365Z,11.20
2018-10-11T03:38:28.994Z,11.20
2018-10-11T03:40:58.611Z,11.70
2018-10-11T03:43:28.226Z,11.47
2018-10-11T03:45:57.858Z,11.47
2018-10-11T03:48:27.442Z,12.27
2018-10-11T03:50:57.134Z,10.77
2018-10-11T03:53:26.799Z,11.27
2018-10-11T03:55:56.466Z,10.40
2018-10-11T03:58:26.214Z,10.87
2018-10-11T04:00:55.934Z,9.30
2018-10-11T04:03:25.578Z,10.97
2018-10-11T04:05:55.247Z,11.13
2018-10-11T04:08:25.179Z,12.07
2018-10-11T04:10:55.198Z,10.87
2018-10-11T04:13:24.934Z,11.23
2018-10-11T04:15:54.586Z,11.50
2018-10-11T04:18:24.107Z,12.07
2018-10-11T04:20:53.691Z,11.57
2018-10-11T04:23:31.386Z,10.07
2018-10-11T04:26:01.616Z,10.73
2018-10-11T04:28:31.226Z,11.23
2018-10-11T04:31:01.098Z,10.73
2018-10-11T04:39:43.253Z,10.30
2018-10-11T04:42:12.852Z,10.33
2018-10-11T04:44:42.479Z,11.07
2018-10-11T04:47:12.095Z,11.00
2018-10-11T04:49:41.690Z,11.50
2018-10-11T04:52:11.360Z,11.00
2018-10-11T04:54:41.091Z,10.83
2018-10-11T04:57:11.915Z,10.40
2018-10-11T04:59:58.922Z,10.77
2018-10-11T05:02:28.554Z,11.27
2018-10-11T05:05:00.143Z,10.07
2018-10-11T05:07:33.642Z,10.93
2018-10-11T05:10:03.258Z,10.77
2018-10-11T05:12:33.007Z,9.87
2018-10-11T05:15:02.854Z,10.07
2018-10-11T05:17:33.160Z,10.23
2018-10-11T05:20:02.848Z,10.30
2018-10-11T05:22:32.490Z,10.23
2018-10-11T05:25:02.162Z,11.20
2018-10-11T05:27:31.739Z,10.50
2018-10-11T05:30:01.319Z,10.30
2018-10-11T05:32:31.434Z,11.47
2018-10-11T05:35:01.112Z,11.67
2018-10-11T05:37:54.266Z,11.47
2018-10-11T05:40:23.828Z,10.13
2018-10-11T05:42:53.479Z,11.10
2018-10-11T05:45:25.650Z,10.27
2018-10-11T05:47:55.157Z,9.67
2018-10-11T05:50:24.632Z,9.73
2018-10-11T05:52:53.938Z,9.90
2018-10-11T05:55:30.178Z,10.43
2018-10-11T05:57:59.735Z,9.87
2018-10-11T06:00:29.403Z,11.57
2018-10-11T06:03:04.331Z,10.67
2018-10-11T06:05:34.006Z,11.63
2018-10-11T06:08:04.333Z,10.43
2018-10-11T06:10:38.535Z,10.13
2018-10-11T06:13:09.174Z,9.90
2018-10-11T06:15:39.503Z,11.17
2018-10-11T06:18:09.710Z,10.37
2018-10-11T06:20:39.433Z,10.07
2018-10-11T06:23:09.167Z,11.30
2018-10-11T06:25:38.810Z,11.07
2018-10-11T06:28:09.137Z,9.93
2018-10-11T06:30:43.749Z,9.23
2018-10-11T06:33:13.599Z,9.50
2018-10-11T06:35:43.400Z,9.77
2018-10-11T06:38:13.066Z,9.43
2018-10-11T06:40:42.777Z,9.97
2018-10-11T06:43:12.551Z,9.07
2018-10-11T06:45:42.770Z,9.03
2018-10-11T06:48:12.427Z,8.33
2018-10-11T06:50:44.006Z,9.73
2018-10-11T06:53:13.700Z,8.93
2018-10-11T06:55:43.370Z,8.83
2018-10-11T06:58:13.071Z,9.10
2018-10-11T07:00:43.878Z,9.20
2018-10-11T07:03:13.591Z,9.50
2018-10-11T07:05:43.250Z,8.63
2018-10-11T07:08:12.903Z,8.73
2018-10-11T07:10:42.571Z,8.60
2018-10-11T07:13:12.303Z,9.07
2018-10-11T07:15:48.175Z,9.00
2018-10-11T07:18:17.952Z,8.83
2018-10-11T07:20:47.533Z,8.10
2018-10-11T07:23:17.346Z,9.03
2018-10-11T07:25:47.209Z,9.93
2018-10-11T07:28:16.893Z,9.40
2018-10-11T07:30:46.623Z,8.83
2018-10-11T07:33:16.254Z,9.10
2018-10-11T07:35:45.926Z,9.50
2018-10-11T07:38:15.579Z,9.37
2018-10-11T07:40:45.386Z,9.23
2018-10-11T07:43:14.999Z,9.40
2018-10-11T07:45:44.668Z,8.17
2018-10-11T07:48:14.340Z,9.47
2018-10-11T07:50:44.017Z,9.60
2018-10-11T07:53:13.662Z,9.43
2018-10-11T07:55:43.335Z,8.90
2018-10-11T07:58:13.241Z,8.80
2018-10-11T08:00:43.051Z,9.57
2018-10-11T08:03:12.805Z,9.20
2018-10-11T08:05:42.442Z,8.27
2018-10-11T08:08:12.175Z,8.87
2018-10-11T08:10:42.129Z,9.37
2018-10-11T08:13:11.914Z,9.60
2018-10-11T08:15:41.665Z,9.73
2018-10-11T08:18:11.311Z,10.30
2018-10-11T08:20:41.006Z,9.67
2018-10-11T08:23:10.531Z,8.60
2018-10-11T08:25:40.429Z,9.20
2018-10-11T08:28:09.731Z,9.90
2018-10-11T08:30:39.403Z,10.07
2018-10-11T08:33:09.029Z,9.63
2018-10-11T08:35:38.654Z,10.10
2018-10-11T08:38:08.575Z,10.43
2018-10-11T08:40:38.051Z,9.40
2018-10-11T08:43:18.421Z,9.33
2018-10-11T08:45:48.154Z,10.10
2018-10-11T08:48:17.770Z,9.17
2018-10-11T08:50:47.479Z,9.90
2018-10-11T08:53:17.142Z,9.60
2018-10-11T08:55:46.841Z,8.57
2018-10-11T08:58:16.586Z,8.93
2018-10-11T09:00:46.610Z,9.90
2018-10-11T09:03:16.352Z,10.17
2018-10-11T09:05:46.002Z,12.50
2018-10-11T09:08:15.672Z,9.37
2018-10-11T09:10:45.286Z,8.63
2018-10-11T09:13:15.100Z,8.47
2018-10-11T09:15:44.691Z,8.07
2018-10-11T09:18:14.392Z,8.73
2018-10-11T09:20:44.065Z,7.27
2018-10-11T09:23:13.772Z,8.07
2018-10-11T09:25:43.494Z,7.60
2018-10-11T09:28:13.483Z,7.13
2018-10-11T09:30:43.198Z,7.13
2018-10-11T09:33:12.993Z,6.90
2018-10-11T09:35:42.683Z,6.53
2018-10-11T09:38:12.383Z,6.67
2018-10-11T09:40:41.960Z,6.83
2018-10-11T09:43:11.721Z,6.53
2018-10-11T09:45:41.382Z,6.30
2018-10-11T09:48:11.067Z,7.03
2018-10-11T09:50:40.754Z,6.00
2018-10-11T09:53:10.405Z,6.83
2018-10-11T09:55:40.034Z,6.07
2018-10-11T09:58:09.931Z,6.10
2018-10-11T10:00:44.928Z,6.57
2018-10-11T10:03:14.816Z,6.23
2018-10-11T10:05:44.513Z,6.30
2018-10-11T10:08:14.232Z,6.83
2018-10-11T10:10:44.192Z,5.90
2018-10-11T10:13:13.887Z,6.47
2018-10-11T10:15:43.825Z,6.00
2018-10-11T10:18:13.423Z,5.93
2018-10-11T10:20:43.096Z,6.30
2018-10-11T10:23:12.680Z,5.43
2018-10-11T10:26:07.641Z,5.33
2018-10-11T10:28:39.307Z,5.33
2018-10-11T10:31:08.926Z,5.60
2018-10-11T10:33:38.647Z,5.80
2018-10-11T10:36:08.694Z,5.80
2018-10-11T10:38:38.242Z,5.23
2018-10-11T10:41:07.868Z,5.03
2018-10-11T10:43:37.526Z,5.37
2018-10-11T10:46:07.198Z,5.47
2018-10-11T10:48:36.825Z,5.60
2018-10-11T10:51:06.508Z,6.00
2018-10-11T10:53:36.118Z,5.90
2018-10-11T10:56:05.734Z,5.90
2018-10-11T10:58:35.811Z,6.30
2018-10-11T11:01:05.483Z,7.30
2018-10-11T11:03:35.272Z,7.33
2018-10-11T11:06:09.315Z,7.20
2018-10-11T11:08:38.946Z,8.13
2018-10-11T11:11:08.826Z,8.70
2018-10-11T11:13:39.042Z,8.93
2018-10-11T11:16:09.639Z,9.55
2018-10-11T11:18:39.275Z,9.53
2018-10-11T11:21:18.935Z,8.83
2018-10-11T11:23:48.574Z,8.60
2018-10-11T11:26:18.282Z,7.83
2018-10-11T11:28:47.907Z,9.37
2018-10-11T11:31:37.544Z,8.43
2018-10-11T11:34:07.272Z,8.43
2018-10-11T11:36:37.146Z,9.90
2018-10-11T11:39:09.681Z,9.27
2018-10-11T11:41:40.646Z,8.57
2018-10-11T11:44:11.691Z,8.40
2018-10-11T11:46:41.345Z,9.00
2018-10-11T11:49:10.981Z,9.83
2018-10-11T11:51:40.550Z,8.83
2018-10-11T11:54:19.818Z,9.13
2018-10-11T11:56:50.342Z,8.17
2018-10-11T11:59:20.008Z,9.47
2018-10-11T12:01:49.852Z,9.50
2018-10-11T12:04:19.552Z,10.13
2018-10-11T12:06:49.266Z,9.60
2018-10-11T12:09:18.914Z,9.10
2018-10-11T12:11:48.627Z,9.67
2018-10-11T12:14:18.420Z,9.23
2018-10-11T12:16:48.220Z,9.27
2018-10-11T12:19:18.269Z,9.47
2018-10-11T12:21:49.714Z,9.43
2018-10-11T12:24:19.394Z,9.80
2018-10-11T12:26:48.983Z,9.97
2018-10-11T12:29:18.642Z,9.17
2018-10-11T12:32:13.344Z,8.47
2018-10-11T12:34:43.201Z,9.37
2018-10-11T12:37:13.040Z,9.23
2018-10-11T12:39:42.731Z,9.30
2018-10-11T12:42:14.313Z,9.27
2018-10-11T12:44:44.083Z,9.13
2018-10-11T12:47:13.847Z,9.10
2018-10-11T12:49:46.616Z,9.10
2018-10-11T12:52:13.796Z,9.80
2018-10-11T12:54:44.223Z,9.97
2018-10-11T12:57:17.170Z,10.17
2018-10-11T12:59:44.302Z,10.07
2018-10-11T13:02:14.829Z,10.87
2018-10-11T13:04:44.565Z,9.23
2018-10-11T13:07:14.244Z,10.90
2018-10-11T13:09:45.721Z,10.47
2018-10-11T13:12:15.607Z,10.60
2018-10-11T13:14:45.271Z,10.50
2018-10-11T13:17:15.027Z,9.90
2018-10-11T13:19:44.974Z,9.80
2018-10-11T13:22:14.782Z,10.20
2018-10-11T13:24:54.374Z,10.33
2018-10-11T13:27:24.039Z,9.43
2018-10-11T13:29:53.780Z,9.93
2018-10-11T13:32:23.443Z,9.67
2018-10-11T13:34:53.391Z,9.73
2018-10-11T13:37:22.931Z,9.83
2018-10-11T13:39:56.190Z,8.80
2018-10-11T13:42:22.271Z,9.37
2018-10-11T13:44:52.131Z,9.47
2018-10-11T13:47:21.843Z,8.80
2018-10-11T13:49:51.661Z,9.57
2018-10-11T13:52:22.512Z,10.07
2018-10-11T13:54:50.998Z,9.87
2018-10-11T13:57:24.079Z,10.20
2018-10-11T13:59:50.644Z,9.30
2018-10-11T14:02:20.411Z,8.70
2018-10-11T14:04:50.156Z,8.77
2018-10-11T14:07:19.855Z,9.07
2018-10-11T14:09:51.194Z,9.00
2018-10-11T14:12:20.890Z,9.40
2018-10-11T14:14:50.932Z,9.60
2018-10-11T14:17:42.757Z,8.40
2018-10-11T14:20:14.849Z,8.83
2018-10-11T14:22:44.970Z,9.43
2018-10-11T14:25:19.111Z,9.43
2018-10-11T14:27:49.528Z,8.27
2018-10-11T14:30:20.012Z,8.90
2018-10-11T14:32:49.737Z,9.53
2018-10-11T14:35:19.405Z,9.10
2018-10-11T14:37:50.711Z,9.87
2018-10-11T14:40:24.403Z,8.87
2018-10-11T14:43:11.799Z,8.33
2018-10-11T14:45:43.082Z,8.57
2018-10-11T14:48:13.535Z,9.70
2018-10-11T14:50:43.502Z,9.87
2018-10-11T14:53:13.339Z,9.43
2018-10-11T14:55:43.374Z,9.07
2018-10-11T14:58:13.030Z,10.60
2018-10-11T15:00:44.518Z,9.10
2018-10-11T15:03:14.348Z,9.77
2018-10-11T15:05:44.135Z,8.80
2018-10-11T15:08:14.127Z,9.27
2018-10-11T15:10:43.944Z,11.23
2018-10-11T15:13:13.802Z,10.27
2018-10-11T15:15:43.499Z,10.47
2018-10-11T15:18:13.522Z,11.20
2018-10-11T15:20:43.248Z,10.70
2018-10-11T15:23:13.066Z,11.27
2018-10-11T15:25:43.103Z,9.70
2018-10-11T15:28:12.983Z,9.73
2018-10-11T15:30:42.549Z,9.57
2018-10-11T15:33:12.298Z,9.97
2018-10-11T15:35:41.963Z,10.67
2018-10-11T15:38:11.700Z,9.97
2018-10-11T15:40:41.415Z,10.70
2018-10-11T15:43:12.493Z,10.97
2018-10-11T15:45:42.186Z,10.63
2018-10-11T15:48:11.783Z,10.97
2018-10-11T15:50:41.651Z,10.90
2018-10-11T15:53:12.000Z,9.53
2018-10-11T15:55:41.729Z,9.13
2018-10-11T15:58:11.469Z,10.67
2018-10-11T16:00:42.171Z,10.20
2018-10-11T16:03:11.861Z,9.27
2018-10-11T16:05:41.906Z,7.83
2018-10-11T16:08:11.316Z,8.80
2018-10-11T16:10:40.991Z,8.87
2018-10-11T16:13:10.664Z,9.07
2018-10-11T16:15:40.428Z,9.00
2018-10-11T16:18:10.065Z,9.67
2018-10-11T16:20:39.695Z,9.63
2018-10-11T16:23:09.344Z,8.37
2018-10-11T16:25:38.955Z,8.77
2018-10-11T16:28:08.640Z,8.87
2018-10-11T16:30:45.825Z,9.17
2018-10-11T16:33:16.514Z,9.57
2018-10-11T16:35:51.802Z,10.17
2018-10-11T16:38:23.603Z,9.10
2018-10-11T16:41:11.064Z,9.23
2018-10-11T16:43:45.430Z,8.73
2018-10-11T16:46:15.139Z,9.40
2018-10-11T16:48:46.077Z,8.80
2018-10-11T16:51:18.003Z,8.83
2018-10-11T16:53:48.277Z,7.73
2018-10-11T16:56:19.054Z,9.47
2018-10-11T16:58:48.790Z,8.47
2018-10-11T17:01:18.514Z,8.57
2018-10-11T17:03:48.923Z,10.10
2018-10-11T17:06:19.370Z,9.43
2018-10-11T17:08:49.263Z,8.90
2018-10-11T17:11:18.974Z,9.67
2018-10-11T17:13:48.705Z,10.40
2018-10-11T17:16:18.330Z,10.57
2018-10-11T17:18:48.280Z,10.87
2018-10-11T17:21:18.478Z,10.53
2018-10-11T17:23:48.112Z,9.50
2018-10-11T17:26:18.059Z,8.97
2018-10-11T17:28:48.310Z,10.07
2018-10-11T17:31:19.454Z,9.67
2018-10-11T17:33:49.662Z,9.57
2018-10-11T17:36:20.374Z,9.33
2018-10-11T17:38:50.149Z,10.00
2018-10-11T17:41:19.861Z,10.53
2018-10-11T17:43:49.680Z,9.57
2018-10-11T17:46:19.654Z,10.47
2018-10-11T17:48:51.310Z,9.90
2018-10-11T17:51:26.449Z,10.80
2018-10-11T17:53:56.500Z,12.53
2018-10-11T17:56:26.171Z,10.73
2018-10-11T17:59:03.095Z,11.73
2018-10-11T18:01:33.239Z,12.73
2018-10-11T18:04:05.187Z,11.93
2018-10-11T18:06:37.064Z,12.10
2018-10-11T18:09:14.027Z,10.83
2018-10-11T18:11:44.643Z,11.57
2018-10-11T18:14:16.816Z,11.80
2018-10-11T18:16:47.583Z,11.73
2018-10-11T18:19:18.426Z,10.27
2018-10-11T18:21:48.393Z,9.53
2018-10-11T18:24:18.443Z,9.73
2018-10-11T18:26:48.438Z,8.87
2018-10-11T18:29:21.299Z,10.10
2018-10-11T18:31:54.935Z,8.80
2018-10-11T18:34:25.535Z,9.10
2018-10-11T18:36:57.063Z,10.30
2018-10-11T18:39:29.228Z,10.03
2018-10-11T18:42:11.989Z,9.57
2018-10-11T18:44:43.005Z,10.00
2018-10-11T18:47:15.038Z,10.53
2018-10-11T18:49:46.491Z,9.80
2018-10-11T18:52:17.067Z,10.27
2018-10-11T18:54:51.321Z,9.50
2018-10-11T18:57:23.076Z,9.10
2018-10-11T18:59:53.413Z,10.00
2018-10-11T19:02:24.208Z,10.20
2018-10-11T19:04:54.291Z,9.50
2018-10-11T19:07:24.988Z,9.30
2018-10-11T19:09:54.975Z,8.73
2018-10-11T19:12:32.456Z,9.83
2018-10-11T19:15:18.859Z,9.47
2018-10-11T19:17:51.459Z,9.03
2018-10-11T19:20:21.563Z,9.67
2018-10-11T19:22:58.796Z,9.33
2018-10-11T19:25:36.866Z,9.67
2018-10-11T19:28:06.731Z,9.67
2018-10-11T19:30:36.531Z,9.70
2018-10-11T19:33:09.658Z,10.00
2018-10-11T19:35:39.347Z,9.87
2018-10-11T19:38:09.392Z,9.50
2018-10-11T19:40:39.149Z,9.20
2018-10-11T19:43:09.852Z,9.30
2018-10-11T19:45:40.040Z,9.20
2018-10-11T19:48:22.476Z,10.00
2018-10-11T19:50:52.638Z,9.40
2018-10-11T19:53:22.494Z,9.20
2018-10-11T19:55:52.182Z,9.63
2018-10-11T19:58:23.917Z,9.70
2018-10-11T20:00:54.534Z,9.80
2018-10-11T20:03:26.315Z,9.07
2018-10-11T20:05:56.092Z,9.87
2018-10-11T20:08:27.401Z,10.20
2018-10-11T20:11:00.796Z,9.97
2018-10-11T20:13:31.603Z,9.67
2018-10-11T20:16:02.508Z,10.00
2018-10-11T20:18:33.753Z,9.10
2018-10-11T20:21:07.843Z,10.27
2018-10-11T20:23:42.142Z,10.20
2018-10-11T20:26:19.426Z,9.87
2018-10-11T20:28:50.655Z,10.27
2018-10-11T20:31:20.727Z,10.17
2018-10-11T20:33:57.755Z,9.80
2018-10-11T20:36:28.074Z,10.40
2018-10-11T20:39:00.223Z,9.30
2018-10-11T20:41:30.262Z,9.67
2018-10-11T20:44:00.009Z,10.57
2018-10-11T20:46:29.824Z,8.53
2018-10-11T20:49:02.853Z,10.23
2018-10-11T20:51:32.961Z,10.13
2018-10-11T20:54:03.780Z,9.57
2018-10-11T20:56:33.666Z,10.37
2018-10-11T20:59:07.974Z,11.07
2018-10-11T21:01:37.934Z,10.53
2018-10-11T21:04:07.567Z,10.07
2018-10-11T21:06:44.598Z,10.00
2018-10-11T21:09:14.721Z,10.07
2018-10-11T21:11:45.479Z,9.70
2018-10-11T21:14:17.731Z,9.77
2018-10-11T21:16:47.900Z,10.73
2018-10-11T21:19:38.490Z,10.40
2018-10-11T21:22:08.787Z,11.03
2018-10-11T21:24:56.659Z,10.07
2018-10-11T21:27:36.790Z,10.47
2018-10-11T21:33:18.324Z,10.33
2018-10-11T21:35:48.996Z,9.83
2018-10-11T21:38:19.018Z,10.27
2018-10-11T21:40:48.933Z,9.63
2018-10-11T21:43:21.006Z,9.70
2018-10-11T21:45:50.987Z,10.17
2018-10-11T21:48:21.220Z,10.40
2018-10-11T21:50:51.238Z,9.63
2018-10-11T21:53:21.468Z,10.73
2018-10-11T21:55:52.877Z,9.90
2018-10-11T21:58:27.978Z,9.80
2018-10-11T22:01:28.496Z,8.73
2018-10-11T22:03:58.246Z,9.13
2018-10-11T22:06:29.488Z,10.17
2018-10-11T22:08:59.288Z,10.17
2018-10-11T22:11:29.689Z,10.00
2018-10-11T22:13:59.523Z,9.70
2018-10-11T22:16:39.795Z,9.47
2018-10-11T22:19:10.559Z,9.43
2018-10-11T22:21:40.491Z,9.37
2018-10-11T22:24:10.351Z,9.33
2018-10-11T22:26:40.336Z,9.73
2018-10-11T22:29:10.326Z,15.30
2018-10-11T22:31:40.070Z,11.20
2018-10-11T22:34:09.816Z,10.53
2018-10-11T22:36:44.360Z,10.83
2018-10-11T22:39:14.102Z,10.27
2018-10-11T22:41:43.927Z,10.50
2018-10-11T22:44:13.724Z,10.13
2018-10-11T22:46:43.807Z,10.17
2018-10-11T22:49:13.446Z,9.67
2018-10-11T22:51:43.226Z,9.43
2018-10-11T22:54:13.024Z,11.77
2018-10-11T22:56:43.096Z,10.20
2018-10-11T22:59:12.774Z,10.87
2018-10-11T23:02:10.954Z,10.90
2018-10-11T23:04:40.894Z,10.67
2018-10-11T23:07:11.096Z,10.83
2018-10-11T23:12:46.972Z,10.67
2018-10-11T23:15:16.626Z,10.00
2018-10-11T23:17:46.399Z,11.27
2018-10-11T23:20:41.922Z,11.07
2018-10-11T23:23:11.594Z,11.30
2018-10-11T23:25:41.326Z,10.27
2018-10-11T23:31:12.287Z,11.83
2018-10-11T23:33:42.619Z,10.20
2018-10-11T23:36:12.226Z,11.83
2018-10-11T23:38:42.066Z,10.30
2018-10-11T23:41:11.666Z,10.93
2018-10-11T23:43:41.375Z,11.20
2018-10-11T23:46:10.980Z,10.63
2018-10-11T23:48:40.742Z,11.47
2018-10-11T23:51:10.365Z,10.77
2018-10-11T23:53:40.021Z,10.63
2018-10-11T23:56:09.615Z,9.90
2018-10-11T23:58:39.278Z,10.90
